Time;durP1;ratioP1;P1;durP2;ratioP2;P2;SDS_P1;SDS_P2;PMS_P1;PMS_P2;Temp;Humidity;BMP_temperature;BMP_pressure;BME280_temperature;BME280_humidity;BME280_pressure;Samples;Min_cycle;Max_cycle;Signal;HPM_P1;HPM_P2
2023/04/20 00:02:09;;;;;;;15.10;12.00;;;;;;;8.33;82.67;100855.95;105523;277;38291;-73
2023/04/20 00:04:43;;;;;;;17.90;11.80;;;;;;;8.27;82.54;100858.15;105508;277;38965;-73
2023/04/20 00:07:17;;;;;;;14.60;11.50;;;;;;;8.19;82.68;100855.88;105551;277;40220;-71
2023/04/20 00:09:51;;;;;;;12.50;10.70;;;;;;;8.13;82.67;100853.75;105309;277;39537;-71
2023/04/20 00:12:24;;;;;;;13.80;10.70;;;;;;;8.05;82.58;100851.48;105569;277;39794;-73
2023/04/20 00:14:58;;;;;;;13.20;10.30;;;;;;;7.98;82.72;100848.16;105541;277;38649;-73
2023/04/20 00:17:32;;;;;;;15.30;11.10;;;;;;;7.95;82.76;100845.42;105923;277;38972;-72
2023/04/20 00:20:08;;;;;;;13.20;10.80;;;;;;;7.88;82.75;100844.00;105833;277;174671;-72
2023/04/20 00:22:42;;;;;;;14.20;10.80;;;;;;;7.84;83.03;100845.12;105936;277;38511;-73
2023/04/20 00:25:16;;;;;;;13.60;11.40;;;;;;;7.83;83.18;100847.92;105558;277;38595;-74
2023/04/20 00:27:50;;;;;;;12.90;10.80;;;;;;;7.81;83.21;100845.36;105520;277;39639;-73
2023/04/20 00:30:24;;;;;;;12.80;10.20;;;;;;;7.79;83.40;100846.77;105520;277;39719;-73
2023/04/20 00:32:58;;;;;;;12.60;10.80;;;;;;;7.80;83.55;100845.55;105554;277;38459;-72
2023/04/20 00:35:32;;;;;;;13.40;10.30;;;;;;;7.81;83.52;100842.57;105306;277;39862;-72
2023/04/20 00:38:05;;;;;;;13.80;10.50;;;;;;;7.82;83.45;100845.86;105893;277;38821;-73
2023/04/20 00:40:39;;;;;;;14.00;10.20;;;;;;;7.82;83.46;100847.42;105505;277;40196;-73
2023/04/20 00:43:16;;;;;;;13.40;9.90;;;;;;;7.83;83.57;100846.37;105522;277;38260;-72
2023/04/20 00:45:51;;;;;;;13.60;10.50;;;;;;;7.84;83.62;100847.02;105789;277;174622;-72
2023/04/20 00:48:25;;;;;;;12.40;10.20;;;;;;;7.87;83.81;100844.36;105536;277;39793;-72
2023/04/20 00:50:59;;;;;;;11.80;10.40;;;;;;;7.91;83.87;100840.98;105551;277;38788;-72
2023/04/20 00:53:33;;;;;;;13.80;11.10;;;;;;;7.93;83.93;100844.61;105919;277;38519;-73
2023/04/20 00:56:07;;;;;;;13.50;10.20;;;;;;;7.94;84.06;100846.32;105946;277;38205;-73
2023/04/20 00:58:41;;;;;;;10.80;9.60;;;;;;;7.98;84.04;100844.33;105541;277;39942;-74
2023/04/20 01:01:17;;;;;;;10.80;9.00;;;;;;;7.98;83.89;100848.14;105913;277;38247;-74
2023/04/20 01:03:51;;;;;;;9.80;8.80;;;;;;;8.00;84.31;100848.10;105942;277;38863;-73
2023/04/20 01:06:24;;;;;;;12.40;9.70;;;;;;;8.06;84.30;100852.85;105505;277;38263;-73
2023/04/20 01:08:58;;;;;;;13.60;10.30;;;;;;;8.09;84.48;100849.67;105519;277;38898;-74
2023/04/20 01:11:32;;;;;;;12.80;9.90;;;;;;;8.12;84.57;100851.35;105525;277;38460;-74
2023/04/20 01:14:11;;;;;;;10.30;8.70;;;;;;;8.16;84.77;100851.78;105560;277;38380;-73
2023/04/20 01:16:46;;;;;;;14.70;9.80;;;;;;;8.21;84.74;100847.33;105849;277;38596;-73
2023/04/20 01:19:20;;;;;;;11.40;9.30;;;;;;;8.28;84.84;100841.30;105929;278;39633;-73
2023/04/20 01:21:54;;;;;;;14.50;10.50;;;;;;;8.32;84.73;100840.16;105457;278;38215;-73
2023/04/20 01:24:28;;;;;;;13.30;10.10;;;;;;;8.35;84.72;100840.96;105942;278;38236;-74
2023/04/20 01:27:02;;;;;;;11.90;9.20;;;;;;;8.37;84.77;100844.08;105921;278;40146;-74
2023/04/20 01:29:36;;;;;;;13.60;9.30;;;;;;;8.40;84.70;100841.05;105462;278;38701;-72
2023/04/20 01:32:10;;;;;;;10.20;8.80;;;;;;;8.43;84.69;100839.09;105458;266;39217;-72
2023/04/20 01:34:44;;;;;;;12.80;9.60;;;;;;;8.48;84.77;100838.64;105433;278;39118;-71
2023/04/20 01:37:18;;;;;;;10.00;9.00;;;;;;;8.50;84.74;100839.11;105247;278;432915;-71
2023/04/20 01:39:52;;;;;;;11.20;9.50;;;;;;;8.54;84.75;100840.25;105252;278;38231;-73
2023/04/20 01:42:26;;;;;;;11.00;9.30;;;;;;;8.59;84.86;100839.62;105442;278;39107;-73
2023/04/20 01:45:00;;;;;;;9.90;8.30;;;;;;;8.62;84.64;100837.97;105453;278;38429;-74
2023/04/20 01:47:47;;;;;;;12.30;9.60;;;;;;;8.65;84.39;100837.20;105257;278;38869;-74
2023/04/20 01:50:21;;;;;;;11.90;9.20;;;;;;;8.69;84.49;100833.30;105199;280;39704;-74
2023/04/20 01:52:55;;;;;;;11.20;9.20;;;;;;;8.73;84.35;100837.72;105241;280;38380;-71
2023/04/20 01:55:38;;;;;;;10.80;8.30;;;;;;;8.74;84.21;100837.51;105566;281;38705;-71
2023/04/20 01:58:12;;;;;;;10.30;8.50;;;;;;;8.76;84.05;100836.26;105181;280;39636;-71
2023/04/20 02:00:46;;;;;;;11.10;8.90;;;;;;;8.79;83.85;100836.54;105439;286;39737;-73
2023/04/20 02:03:20;;;;;;;11.00;8.80;;;;;;;8.83;83.90;100838.55;105430;278;38433;-73
2023/04/20 02:05:54;;;;;;;13.80;9.30;;;;;;;8.84;83.80;100837.99;105841;278;38932;-74
2023/04/20 02:08:29;;;;;;;13.60;9.60;;;;;;;8.83;83.66;100838.19;105426;278;39776;-71
2023/04/20 02:11:02;;;;;;;13.70;8.50;;;;;;;8.85;83.75;100837.27;105435;278;38446;-71
2023/04/20 02:13:37;;;;;;;12.00;8.90;;;;;;;8.87;83.69;100840.00;105454;278;38522;-72
2023/04/20 02:16:11;;;;;;;13.50;9.40;;;;;;;8.88;83.68;100840.33;105430;278;38280;-72
2023/04/20 02:18:46;;;;;;;10.30;8.20;;;;;;;8.89;83.54;100842.39;105826;279;38264;-73
2023/04/20 02:21:20;;;;;;;12.60;9.40;;;;;;;8.88;83.47;100844.16;105441;278;39482;-73
2023/04/20 02:23:54;;;;;;;10.10;8.40;;;;;;;8.89;83.52;100849.53;105840;279;38559;-71
2023/04/20 02:26:28;;;;;;;10.20;8.30;;;;;;;8.89;83.34;100846.91;105833;278;39432;-71
2023/04/20 02:29:02;;;;;;;10.60;8.80;;;;;;;8.91;83.21;100848.45;105450;278;39433;-72
2023/04/20 02:31:36;;;;;;;11.70;8.70;;;;;;;8.93;83.12;100847.34;105417;278;38328;-72
2023/04/20 02:34:10;;;;;;;11.20;8.90;;;;;;;8.94;82.98;100845.92;105836;278;38813;-73
2023/04/20 02:36:43;;;;;;;11.50;8.70;;;;;;;8.97;82.92;100847.27;105431;278;39695;-73
2023/04/20 02:39:25;;;;;;;14.80;9.10;;;;;;;8.97;82.80;100851.77;105450;278;38391;-72
2023/04/20 02:41:59;;;;;;;12.20;8.40;;;;;;;8.96;82.68;100853.00;105719;280;39663;-71
2023/04/20 02:44:33;;;;;;;13.30;8.70;;;;;;;8.96;82.48;100848.84;105322;280;38917;-73
2023/04/20 02:47:07;;;;;;;12.00;9.20;;;;;;;8.94;82.41;100846.45;105323;280;38237;-71
2023/04/20 02:49:41;;;;;;;13.40;9.40;;;;;;;8.96;82.52;100846.57;105309;280;38362;-71
2023/04/20 02:52:14;;;;;;;11.40;9.50;;;;;;;8.96;82.34;100842.75;105749;280;38591;-72
2023/04/20 02:54:49;;;;;;;12.40;9.10;;;;;;;8.98;82.36;100845.31;105216;284;174608;-72
2023/04/20 02:57:40;;;;;;;10.50;9.10;;;;;;;9.01;82.19;100844.55;105344;280;38553;-72
2023/04/20 03:00:15;;;;;;;11.70;8.70;;;;;;;9.01;82.20;100843.84;105269;280;38935;-72
2023/04/20 03:02:49;;;;;;;13.00;9.60;;;;;;;9.03;82.13;100847.29;105119;281;39931;-72
2023/04/20 03:05:24;;;;;;;12.90;8.70;;;;;;;9.01;81.88;100849.93;105093;281;38799;-73
2023/04/20 03:11:45;;;;;;;9.70;8.60;;;;;;;8.95;81.98;100852.16;105271;278;38231;-71
2023/04/20 03:14:19;;;;;;;11.80;9.50;;;;;;;8.96;81.95;100851.81;105891;278;39303;-72
2023/04/20 03:16:53;;;;;;;10.70;9.40;;;;;;;8.96;81.97;100848.67;105918;278;38246;-72
2023/04/20 03:19:27;;;;;;;10.50;8.70;;;;;;;8.94;81.98;100850.46;105436;278;38553;-71
2023/04/20 03:22:02;;;;;;;10.80;8.40;;;;;;;8.93;81.97;100852.73;105448;278;38439;-71
2023/04/20 03:24:35;;;;;;;9.00;8.10;;;;;;;8.94;82.01;100852.89;105436;285;38396;-72
2023/04/20 03:27:09;;;;;;;12.50;9.20;;;;;;;8.96;82.06;100852.15;105484;278;38237;-72
2023/04/20 03:29:43;;;;;;;11.20;8.80;;;;;;;8.98;82.08;100852.63;105899;278;38841;-71
2023/04/20 03:32:18;;;;;;;13.70;9.00;;;;;;;8.98;82.01;100851.23;105489;266;38627;-72
2023/04/20 03:35:04;;;;;;;11.30;9.20;;;;;;;8.99;81.85;100849.45;105348;278;172148;-73
2023/04/20 03:37:38;;;;;;;12.10;8.90;;;;;;;9.00;81.97;100854.84;105347;279;38704;-72
2023/04/20 03:40:14;;;;;;;11.40;9.00;;;;;;;9.00;81.97;100855.52;105344;280;38345;-72
2023/04/20 03:42:48;;;;;;;13.10;10.20;;;;;;;8.98;81.78;100855.91;105489;277;40661;-73
2023/04/20 03:45:23;;;;;;;13.10;9.30;;;;;;;8.94;81.61;100853.77;105940;278;39009;-73
2023/04/20 03:47:57;;;;;;;11.70;9.50;;;;;;;8.91;81.78;100855.38;105276;278;38260;-73
2023/04/20 03:50:31;;;;;;;10.90;9.60;;;;;;;8.91;81.67;100851.94;105480;278;38547;-73
2023/04/20 03:53:05;;;;;;;12.20;9.10;;;;;;;8.89;81.87;100860.14;105466;278;38608;-73
2023/04/20 03:59:21;;;;;;;13.50;9.00;;;;;;;8.82;81.96;100867.27;105486;277;38458;-71
2023/04/20 04:01:57;;;;;;;11.20;9.10;;;;;;;8.83;81.96;100867.06;105513;277;38416;-71
2023/04/20 04:04:30;;;;;;;12.00;9.80;;;;;;;8.84;82.07;100864.43;105551;277;38330;-71
2023/04/20 04:07:05;;;;;;;11.20;9.20;;;;;;;8.85;82.08;100867.02;105927;277;38607;-71
2023/04/20 04:09:39;;;;;;;12.20;10.50;;;;;;;8.84;81.97;100872.09;105559;266;38417;-71
2023/04/20 04:12:13;;;;;;;12.40;9.20;;;;;;;8.83;81.99;100879.05;105302;277;39447;-71
2023/04/20 04:14:47;;;;;;;12.10;9.30;;;;;;;8.81;81.91;100877.73;105568;277;38279;-72
2023/04/20 04:17:21;;;;;;;12.90;9.50;;;;;;;8.83;81.91;100875.94;105347;277;39936;-71
2023/04/20 04:19:55;;;;;;;14.10;9.30;;;;;;;8.86;82.03;100879.53;105544;277;38242;-71
2023/04/20 04:22:29;;;;;;;14.70;10.20;;;;;;;8.89;82.09;100881.55;105558;277;39564;-71
2023/04/20 04:25:20;;;;;;;12.10;9.90;;;;;;;8.93;82.05;100883.89;105527;277;39652;-71
2023/04/20 04:27:54;;;;;;;11.30;9.40;;;;;;;8.95;81.78;100886.96;105506;277;39224;-71
2023/04/20 04:33:13;;;;;;;11.40;9.70;;;;;;;9.01;81.71;100893.79;105351;279;39912;-71
2023/04/20 04:35:48;;;;;;;13.40;10.00;;;;;;;9.06;81.57;100889.85;105244;280;39084;-71
2023/04/20 04:38:22;;;;;;;12.90;10.60;;;;;;;9.09;81.65;100892.22;105552;280;39806;-71
2023/04/20 04:40:56;;;;;;;13.00;9.80;;;;;;;9.12;81.58;100893.73;105232;280;38311;-73
2023/04/20 04:43:44;;;;;;;13.20;10.10;;;;;;;9.14;81.46;100896.09;105243;269;38238;-71
2023/04/20 04:46:31;;;;;;;14.70;9.20;;;;;;;9.20;81.58;100897.50;105229;280;38243;-71
2023/04/20 04:49:05;;;;;;;12.60;9.10;;;;;;;9.26;81.34;100895.45;105127;280;174608;-73
2023/04/20 04:51:39;;;;;;;12.80;10.10;;;;;;;9.29;81.27;100897.98;105536;281;39912;-73
2023/04/20 04:54:13;;;;;;;13.10;10.30;;;;;;;9.36;81.51;100900.62;105207;280;38355;-72
2023/04/20 04:56:47;;;;;;;13.10;9.40;;;;;;;9.42;81.26;100902.89;105546;280;39644;-72
2023/04/20 04:59:21;;;;;;;17.10;10.40;;;;;;;9.47;80.77;100907.84;105554;280;38291;-71
2023/04/20 05:01:55;;;;;;;11.70;9.30;;;;;;;9.49;80.87;100913.52;105059;282;38314;-71
2023/04/20 05:04:29;;;;;;;15.20;10.20;;;;;;;9.52;80.53;100917.64;105233;280;38513;-72
2023/04/20 05:07:02;;;;;;;13.40;9.80;;;;;;;9.55;80.48;100918.77;105196;280;39662;-72
2023/04/20 05:09:36;;;;;;;13.70;10.00;;;;;;;9.57;80.36;100921.70;105249;280;38286;-71
2023/04/20 05:12:10;;;;;;;12.90;9.50;;;;;;;9.60;80.32;100917.95;105225;280;38687;-71
2023/04/20 05:14:44;;;;;;;11.10;8.90;;;;;;;9.66;80.21;100918.00;105543;280;39771;-72
2023/04/20 05:17:18;;;;;;;13.40;9.80;;;;;;;9.73;80.24;100917.44;105541;281;39155;-73
2023/04/20 05:20:05;;;;;;;13.40;10.30;;;;;;;9.83;80.29;100914.58;105512;280;38533;-71
2023/04/20 05:22:39;;;;;;;15.60;9.80;;;;;;;9.97;80.64;100919.27;105514;280;39384;-71
2023/04/20 05:25:14;;;;;;;15.60;9.90;;;;;;;10.11;80.51;100919.56;105546;280;39515;-72
2023/04/20 05:28:03;;;;;;;15.50;9.60;;;;;;;10.28;80.20;100925.23;105719;280;38542;-71
2023/04/20 05:34:06;;;;;;;15.10;10.20;;;;;;;10.49;79.11;100925.88;105445;276;38220;-72
2023/04/20 05:36:40;;;;;;;13.00;9.70;;;;;;;10.57;79.01;100931.03;105633;277;38437;-71
2023/04/20 05:42:38;;;;;;;12.70;9.40;;;;;;;11.08;79.86;100927.59;105475;277;174468;-72
2023/04/20 05:45:14;;;;;;;15.70;10.10;;;;;;;11.50;80.30;100932.02;105569;277;38472;-72
2023/04/20 05:47:56;;;;;;;15.10;9.40;;;;;;;11.98;80.85;100927.77;105561;277;38745;-72
2023/04/20 05:50:31;;;;;;;13.30;9.40;;;;;;;12.65;79.79;100923.61;105577;277;38236;-74
2023/04/20 05:53:05;;;;;;;20.40;10.30;;;;;;;13.00;76.20;100930.33;105639;277;39650;-74
2023/04/20 05:55:39;;;;;;;17.50;10.90;;;;;;;13.23;75.21;100930.30;105653;277;39043;-73
2023/04/20 05:58:23;;;;;;;21.00;12.80;;;;;;;13.29;72.37;100931.13;106102;277;38551;-71
2023/04/20 06:00:58;;;;;;;18.20;10.80;;;;;;;13.26;72.45;100934.91;105352;277;39727;-71
2023/04/20 06:03:32;;;;;;;15.70;10.00;;;;;;;13.73;71.81;100927.58;106144;277;38474;-71
2023/04/20 06:06:06;;;;;;;14.80;10.10;;;;;;;13.90;69.29;100931.23;105675;276;39613;-71
2023/04/20 06:08:40;;;;;;;18.30;9.60;;;;;;;13.88;68.48;100939.73;106119;277;38696;-72
2023/04/20 06:11:14;;;;;;;15.40;9.20;;;;;;;13.90;68.08;100944.90;105702;276;39391;-72
2023/04/20 06:13:49;;;;;;;12.10;8.70;;;;;;;13.95;67.22;100946.63;106149;277;39768;-72
2023/04/20 06:16:24;;;;;;;12.20;8.80;;;;;;;13.99;65.91;100945.21;105590;276;188250;-72
2023/04/20 06:18:58;;;;;;;12.60;8.60;;;;;;;14.29;66.83;100946.00;105713;276;38383;-71
2023/04/20 06:21:32;;;;;;;16.00;8.50;;;;;;;14.57;65.66;100947.77;105690;277;38730;-71
2023/04/20 06:24:10;;;;;;;12.20;7.70;;;;;;;15.23;64.74;100945.52;105430;276;39280;-71
2023/04/20 06:30:10;;;;;;;14.10;8.20;;;;;;;17.98;59.51;100942.41;105448;276;38358;-74
2023/04/20 06:32:44;;;;;;;13.30;7.90;;;;;;;19.08;56.14;100935.80;105638;277;38214;-74
2023/04/20 06:35:21;;;;;;;12.00;7.50;;;;;;;19.44;52.96;100933.98;105631;277;38661;-73
2023/04/20 06:38:11;;;;;;;12.50;7.40;;;;;;;19.35;51.31;100935.30;105646;277;38390;-75
2023/04/20 06:44:09;;;;;;;8.80;7.20;;;;;;;21.01;48.84;100932.67;105423;276;38189;-72
2023/04/20 06:46:43;;;;;;;19.70;9.00;;;;;;;21.68;47.72;100926.52;105471;278;38696;-73
2023/04/20 06:49:17;;;;;;;18.40;9.50;;;;;;;22.14;45.49;100929.39;105408;278;39658;-73
2023/04/20 06:51:51;;;;;;;17.80;9.30;;;;;;;22.65;45.05;100925.70;105460;278;40135;-75
2023/04/20 06:54:25;;;;;;;17.30;8.50;;;;;;;23.25;45.10;100925.54;105455;278;38491;-74
2023/04/20 06:57:00;;;;;;;17.60;9.60;;;;;;;23.79;42.63;100929.01;105469;278;40099;-74
2023/04/20 06:59:34;;;;;;;12.00;7.80;;;;;;;24.09;40.82;100932.20;105461;278;39447;-74
2023/04/20 07:02:22;;;;;;;12.70;7.60;;;;;;;24.24;37.81;100936.93;105462;278;38493;-74
2023/04/20 07:04:59;;;;;;;;;;;;;;;24.08;38.05;100937.46;105544;277;38432;-74
2023/04/20 07:07:33;;;;;;;16.20;8.30;;;;;;;24.12;37.87;100937.09;105583;277;39973;-74
2023/04/20 07:10:08;;;;;;;15.70;7.80;;;;;;;24.17;37.85;100940.23;105545;277;39503;-74
2023/04/20 07:22:55;;;;;;;10.20;7.00;;;;;;;25.45;35.55;100936.15;105575;277;38986;-74
2023/04/20 07:25:31;;;;;;;14.70;7.10;;;;;;;25.62;34.06;100938.52;105578;277;40095;-74
2023/04/20 07:28:05;;;;;;;10.80;6.40;;;;;;;25.79;34.56;100941.99;105955;277;38260;-74
2023/04/20 07:30:40;;;;;;;12.40;7.00;;;;;;;26.14;33.82;100942.09;105573;277;38235;-74
2023/04/20 07:33:14;;;;;;;12.80;6.90;;;;;;;26.22;32.16;100946.35;105548;277;39770;-74
2023/04/20 07:35:48;;;;;;;11.50;6.40;;;;;;;26.21;32.23;100946.45;105587;277;38274;-74
2023/04/20 07:38:33;;;;;;;11.10;6.10;;;;;;;26.33;32.49;100945.87;105590;277;38288;-75
2023/04/20 07:44:34;;;;;;;14.80;6.90;;;;;;;26.89;30.74;100942.43;105556;276;39160;-73
2023/04/20 07:47:08;;;;;;;12.80;5.40;;;;;;;27.15;30.97;100941.84;106082;277;40017;-74
2023/04/20 07:49:42;;;;;;;11.50;5.40;;;;;;;27.45;31.04;100936.72;106138;277;39440;-74
2023/04/20 07:52:17;;;;;;;17.20;5.50;;;;;;;27.84;29.73;100936.58;105651;276;39662;-73
2023/04/20 07:58:06;;;;;;;12.10;5.00;;;;;;;28.54;28.58;100930.35;105552;277;38331;-73
2023/04/20 08:00:39;;;;;;;14.60;5.40;;;;;;;28.73;27.82;100933.05;105513;285;39345;-74
2023/04/20 08:03:13;;;;;;;13.20;5.40;;;;;;;28.82;28.39;100932.58;105545;277;38494;-74
2023/04/20 08:05:47;;;;;;;14.40;5.80;;;;;;;29.10;28.57;100929.37;105558;277;39151;-73
2023/04/20 08:08:22;;;;;;;15.00;5.50;;;;;;;29.44;27.38;100929.91;105896;277;38813;-73
2023/04/20 08:10:58;;;;;;;13.60;5.60;;;;;;;29.59;26.22;100928.66;105927;277;38496;-73
2023/04/20 08:13:38;;;;;;;12.70;5.20;;;;;;;29.46;25.34;100931.30;105540;277;39598;-74
2023/04/20 08:16:12;;;;;;;16.40;4.30;;;;;;;29.52;25.75;100933.88;105423;278;39693;-74
2023/04/20 08:18:46;;;;;;;15.20;4.00;;;;;;;29.77;25.30;100937.46;105935;278;38651;-74
2023/04/20 08:21:22;;;;;;;10.40;3.80;;;;;;;29.76;23.79;100940.44;105894;278;38492;-74
2023/04/20 08:27:19;;;;;;;16.70;3.60;;;;;;;29.68;24.24;100938.78;105417;277;38346;-75
2023/04/20 08:29:53;;;;;;;14.20;4.30;;;;;;;29.97;23.93;100942.27;105933;277;38973;-75
2023/04/20 08:32:27;;;;;;;16.50;4.10;;;;;;;30.09;23.86;100942.73;105910;277;39505;-74
2023/04/20 08:35:00;;;;;;;12.80;3.90;;;;;;;30.12;22.88;100945.30;105908;266;39910;-74
2023/04/20 08:37:44;;;;;;;;;;;;;;;;;;;;;
2023/04/20 08:41:01;;;;;;;15.20;3.90;;;;;;;29.47;23.56;100941.64;105069;276;38283;-75
2023/04/20 08:43:35;;;;;;;12.20;3.70;;;;;;;29.52;22.99;100935.16;105286;278;41045;-76
2023/04/20 08:46:09;;;;;;;13.00;3.80;;;;;;;29.44;23.09;100938.07;105793;277;170888;-73
2023/04/20 08:48:43;;;;;;;8.40;3.40;;;;;;;29.65;23.92;100937.30;105524;278;38246;-73
2023/04/20 08:51:18;;;;;;;10.90;3.50;;;;;;;29.94;23.21;100935.25;105505;278;38222;-73
2023/04/20 08:53:52;;;;;;;12.60;3.60;;;;;;;30.18;22.99;100939.55;105539;278;39668;-73
2023/04/20 08:56:35;;;;;;;12.10;4.40;;;;;;;30.23;22.66;100941.54;105872;278;38240;-74
2023/04/20 08:59:11;;;;;;;11.80;3.60;;;;;;;30.34;23.58;100936.45;105551;277;38490;-74
2023/04/20 09:01:45;;;;;;;11.20;3.50;;;;;;;30.78;22.51;100934.14;105575;278;39427;-74
2023/04/20 09:04:23;;;;;;;14.90;4.30;;;;;;;30.94;22.22;100930.79;105513;278;38247;-74
2023/04/20 09:06:58;;;;;;;13.70;3.40;;;;;;;30.89;21.52;100933.08;105536;278;38691;-73
2023/04/20 09:09:31;;;;;;;15.70;4.20;;;;;;;30.56;21.67;100942.80;104837;278;885551;-74
2023/04/20 09:12:07;;;;;;;12.10;3.80;;;;;;;30.34;21.89;100940.27;105880;278;39409;-75
2023/04/20 09:14:47;;;;;;;14.60;3.90;;;;;;;30.31;21.85;100940.81;105458;282;38502;-73
2023/04/20 09:20:45;;;;;;;14.30;2.90;;;;;;;29.49;21.98;100945.02;105388;276;38178;-73
2023/04/20 09:26:58;;;;;;;12.70;3.60;;;;;;;29.14;22.73;100939.08;105607;264;38318;-74
2023/04/20 09:36:02;;;;;;;15.20;3.40;;;;;;;28.33;22.99;100935.97;104905;276;600057;-73
2023/04/20 09:38:36;;;;;;;10.20;3.60;;;;;;;28.01;23.48;100937.89;105657;277;39381;-73
2023/04/20 09:41:11;;;;;;;13.50;2.70;;;;;;;27.61;22.92;100945.45;105671;277;39419;-73
2023/04/20 09:46:22;;;;;;;;;;;;;;;26.22;23.03;100943.84;105096;280;38536;-73
2023/04/20 09:48:59;;;;;;;15.70;3.60;;;;;;;25.62;24.00;100946.73;105326;280;38504;-73
2023/04/20 09:51:34;;;;;;;9.50;2.80;;;;;;;24.99;23.46;100944.13;105187;280;38876;-74
2023/04/20 09:54:09;;;;;;;10.90;3.10;;;;;;;24.34;24.58;100945.35;105163;280;39431;-74
2023/04/20 09:56:43;;;;;;;12.40;3.20;;;;;;;24.02;24.59;100946.11;105839;278;38781;-73
2023/04/20 09:59:17;;;;;;;7.40;2.60;;;;;;;23.72;25.03;100948.17;105406;278;38369;-72
2023/04/20 10:01:51;;;;;;;10.20;2.60;;;;;;;23.33;25.60;100941.44;105291;278;38244;-72
2023/04/20 10:04:25;;;;;;;8.80;2.60;;;;;;;23.05;25.87;100940.13;105843;278;38258;-73
2023/04/20 10:07:04;;;;;;;8.80;2.60;;;;;;;22.77;25.68;100935.45;105431;278;38720;-73
2023/04/20 10:09:39;;;;;;;10.20;3.50;;;;;;;22.67;26.86;100930.55;105445;278;39407;-73
2023/04/20 10:12:13;;;;;;;6.70;2.70;;;;;;;22.76;26.56;100931.79;105264;278;38224;-73
2023/04/20 10:14:57;;;;;;;6.90;2.60;;;;;;;22.79;26.81;100928.49;105441;278;39403;-73
2023/04/20 10:17:34;;;;;;;8.00;2.50;;;;;;;22.79;26.85;100924.20;105409;278;39432;-74
2023/04/20 10:20:20;;;;;;;11.80;3.20;;;;;;;22.82;26.09;100921.00;105460;278;39426;-73
2023/04/20 10:22:54;;;;;;;8.30;2.80;;;;;;;22.85;26.44;100917.02;105448;278;38944;-73
2023/04/20 10:25:28;;;;;;;10.10;2.80;;;;;;;22.89;25.73;100918.27;105329;278;174050;-75
2023/04/20 10:28:07;;;;;;;8.60;2.70;;;;;;;22.68;24.33;100931.15;105268;278;38263;-74
2023/04/20 10:30:51;;;;;;;6.50;1.80;;;;;;;22.42;25.38;100926.50;105454;278;38712;-74
2023/04/20 10:33:24;;;;;;;8.70;3.00;;;;;;;22.28;25.47;100919.61;105860;278;39695;-74
2023/04/20 10:35:59;;;;;;;8.70;2.60;;;;;;;22.29;25.52;100921.65;105447;278;38102;-74
2023/04/20 10:38:37;;;;;;;8.70;2.60;;;;;;;22.28;25.44;100922.42;105351;278;173988;-73
2023/04/20 10:41:17;;;;;;;5.70;2.60;;;;;;;22.23;25.69;100915.56;105914;278;39792;-73
2023/04/20 10:43:51;;;;;;;7.50;2.70;;;;;;;21.95;25.07;100919.13;105326;279;38803;-72
2023/04/20 10:46:26;;;;;;;7.40;3.00;;;;;;;21.50;25.59;100915.62;105082;279;38464;-73
2023/04/20 10:49:01;;;;;;;11.30;3.90;;;;;;;21.24;26.02;100914.85;105463;283;38278;-73
2023/04/20 10:51:35;;;;;;;6.90;3.10;;;;;;;21.12;25.97;100915.02;105397;279;38339;-73
2023/04/20 10:54:10;;;;;;;6.60;2.60;;;;;;;20.99;25.59;100914.79;105416;279;38955;-73
2023/04/20 10:56:45;;;;;;;12.10;3.20;;;;;;;20.93;25.81;100913.76;105390;279;38334;-73
2023/04/20 10:59:21;;;;;;;8.30;2.90;;;;;;;20.97;26.78;100906.19;105430;279;38516;-73
2023/04/20 11:01:58;;;;;;;10.40;3.40;;;;;;;21.10;26.68;100902.17;105358;279;39400;-72
2023/04/20 11:04:35;;;;;;;9.60;2.70;;;;;;;21.17;26.91;100897.80;105180;280;38490;-72
2023/04/20 11:07:12;;;;;;;6.90;2.70;;;;;;;21.31;27.30;100905.48;105702;280;38614;-74
2023/04/20 11:09:46;;;;;;;6.60;2.70;;;;;;;21.41;25.92;100904.62;105726;280;39991;-73
2023/04/20 11:12:20;;;;;;;7.00;2.90;;;;;;;21.40;25.42;100896.30;105294;280;38363;-72
2023/04/20 11:14:59;;;;;;;8.60;2.70;;;;;;;21.39;25.54;100898.15;105672;280;38574;-72
2023/04/20 11:17:36;;;;;;;4.60;2.40;;;;;;;21.25;25.24;100905.02;105318;280;38797;-72
2023/04/20 11:20:14;;;;;;;9.10;2.50;;;;;;;21.03;24.69;100898.48;105689;280;38701;-72
2023/04/20 11:22:58;;;;;;;5.30;2.60;;;;;;;20.98;25.62;100902.77;105700;280;38715;-73
2023/04/20 11:25:32;;;;;;;9.80;2.70;;;;;;;20.98;25.58;100898.13;105320;280;38524;-73
2023/04/20 11:28:10;;;;;;;7.20;3.40;;;;;;;20.99;25.57;100891.83;105297;280;38607;-73
2023/04/20 11:30:44;;;;;;;7.50;2.70;;;;;;;20.91;25.57;100899.22;105320;280;38266;-72
2023/04/20 11:33:27;;;;;;;6.20;2.40;;;;;;;20.72;24.78;100899.19;105323;280;38529;-72
2023/04/20 11:36:02;;;;;;;6.50;2.60;;;;;;;20.65;25.08;100894.00;105316;280;38232;-72
2023/04/20 11:38:36;;;;;;;9.80;3.00;;;;;;;20.67;25.54;100886.52;105687;280;38780;-73
2023/04/20 11:41:11;;;;;;;11.90;3.10;;;;;;;20.73;25.01;100888.23;105133;280;39436;-72
2023/04/20 11:43:47;;;;;;;6.40;2.60;;;;;;;20.82;25.42;100889.19;105298;280;39743;-72
2023/04/20 11:46:22;;;;;;;7.40;3.00;;;;;;;20.93;25.23;100885.39;105318;280;38420;-72
2023/04/20 11:48:58;;;;;;;12.30;2.70;;;;;;;21.02;25.46;100883.67;105376;278;38662;-72
2023/04/20 11:51:32;;;;;;;7.30;3.00;;;;;;;21.16;26.02;100888.29;105829;279;38956;-72
2023/04/20 11:54:06;;;;;;;5.70;2.80;;;;;;;21.20;25.41;100890.68;105861;278;38393;-72
2023/04/20 11:56:43;;;;;;;6.40;2.90;;;;;;;21.02;25.66;100890.71;105812;278;38765;-71
2023/04/20 11:59:19;;;;;;;7.00;3.20;;;;;;;20.89;26.40;100888.34;105388;278;38840;-71
2023/04/20 12:01:52;;;;;;;11.00;3.20;;;;;;;20.86;26.43;100882.70;105858;278;39242;-72
2023/04/20 12:04:26;;;;;;;7.90;3.20;;;;;;;20.93;26.83;100883.26;105812;278;39930;-73
2023/04/20 12:07:01;;;;;;;7.10;3.20;;;;;;;20.99;26.31;100878.75;105213;278;37883;-72
2023/04/20 12:12:59;;;;;;;8.40;3.30;;;;;;;21.10;25.42;100885.55;105388;276;38295;-72
2023/04/20 12:15:34;;;;;;;6.40;2.40;;;;;;;20.95;24.69;100887.02;105627;276;39834;-72
2023/04/20 12:18:07;;;;;;;6.20;3.20;;;;;;;20.73;24.50;100888.27;105681;277;38499;-72
2023/04/20 12:20:41;;;;;;;4.00;2.50;;;;;;;20.51;24.72;100886.81;105702;277;38486;-72
2023/04/20 12:23:15;;;;;;;7.00;2.80;;;;;;;20.37;24.91;100887.60;106104;276;38836;-72
2023/04/20 12:25:50;;;;;;;8.90;3.40;;;;;;;20.24;25.10;100885.02;106114;277;38497;-73
2023/04/20 12:28:24;;;;;;;8.50;2.50;;;;;;;20.06;25.12;100880.42;105536;277;173958;-73
2023/04/20 12:30:58;;;;;;;7.80;2.80;;;;;;;19.98;25.52;100877.58;106106;277;38979;-72
2023/04/20 12:33:32;;;;;;;6.20;2.90;;;;;;;20.03;25.53;100873.12;106112;277;38439;-73
2023/04/20 12:36:06;;;;;;;4.60;2.60;;;;;;;20.14;25.73;100866.43;105670;276;40092;-74
2023/04/20 12:38:40;;;;;;;5.20;3.00;;;;;;;20.25;26.30;100864.02;105655;276;38717;-74
2023/04/20 12:41:18;;;;;;;7.60;2.60;;;;;;;20.32;25.78;100857.84;105660;277;38450;-73
2023/04/20 12:43:52;;;;;;;7.10;2.80;;;;;;;20.38;25.18;100859.20;106105;276;39033;-73
2023/04/20 12:46:26;;;;;;;5.20;3.20;;;;;;;20.37;24.78;100852.52;106091;277;38540;-72
2023/04/20 12:49:00;;;;;;;6.70;3.10;;;;;;;20.38;24.97;100847.46;105664;277;39451;-72
2023/04/20 12:51:34;;;;;;;5.90;2.70;;;;;;;20.47;25.32;100854.68;105043;277;896471;-72
2023/04/20 12:54:08;;;;;;;5.90;2.70;;;;;;;20.55;24.38;100847.90;105641;277;39746;-72
2023/04/20 12:56:42;;;;;;;5.30;2.80;;;;;;;20.60;24.42;100851.38;105393;278;40396;-73
2023/04/20 12:59:17;;;;;;;5.90;2.80;;;;;;;20.60;23.51;100845.77;105638;277;38286;-73
2023/04/20 13:01:51;;;;;;;6.20;2.90;;;;;;;20.51;23.85;100846.96;106118;277;39509;-72
2023/04/20 13:04:25;;;;;;;6.80;2.90;;;;;;;20.41;23.99;100842.83;106043;276;38244;-74